Date,TemperatureHighF,TemperatureAvgF,TemperatureLowF,DewpointHighF,DewpointAvgF,DewpointLowF,HumidityHigh,HumidityAvg,HumidityLow,PressureMaxIn,PressureMinIn,WindSpeedMaxMPH,WindSpeedAvgMPH,GustSpeedMaxMPH,PrecipitationSumIn
2012-1-14,76,26,16,31,11,7,69,56,18,29.36,29.17,7,0,8,0.10
2012-1-15,16,11,4,8,-3,-9,71,54,33,29.84,29.36,7,0,9,0.00
2012-1-16,30,18,3,26,7,-3,92,66,29,29.87,29.44,8,0,11,0.00
2012-1-17,43,34,28,42,32,26,98,94,90,29.44,28.84,4,0,5,0.27
2012-1-18,44,30,16,42,18,5,97,61,44,29.46,28.84,11,1,13,0.06
2012-1-19,29,20,8,26,12,2,94,72,40,29.55,29.23,8,0,9,0.00
2012-1-20,29,23,17,25,13,4,91,67,46,29.60,29.22,5,0,10,0.00
2012-1-21,22,18,10,17,12,3,90,80,52,29.61,29.34,6,0,7,0.00
2012-1-22,28,18,2,21,12,-1,90,78,63,29.83,29.61,9,0,9,0.00
2012-1-23,48,34,27,47,32,21,98,92,80,29.75,29.19,7,0,8,0.30
2012-1-24,49,42,34,45,37,30,98,84,67,29.42,29.18,10,0,10,0.13
2012-1-25,39,33,30,30,27,24,90,77,65,29.59,29.42,7,0,7,0.00
2012-1-26,36,32,28,33,28,25,96,84,69,29.52,29.18,6,0,7,0.18
2012-1-27,48,38,34,47,36,31,98,93,77,29.18,28.65,8,0,8,0.80
2012-1-28,42,35,29,31,27,23,91,73,54,29.33,29.09,9,1,10,0.00
2012-1-29,40,34,28,26,17,12,81,50,36,29.45,29.27,8,1,9,0.00
2012-1-30,36,30,23,23,17,12,81,60,40,29.59,29.26,8,1,8,0.00
2012-1-31,52,37,25,30,25,17,82,64,36,29.55,29.30,7,0,9,0.00
2012-2-1,58,45,34,44,37,29,90,73,52,29.33,29.15,9,0,11,0.00
2012-2-2,41,34,29,30,27,21,89,74,59,29.54,29.31,6,1,10,0.00
2012-2-3,38,30,22,22,18,12,80,62,43,29.74,29.54,7,1,8,0.00
2012-2-4,45,33,25,29,23,19,84,68,46,29.61,29.42,5,0,6,0.00
2012-2-5,35,26,20,20,16,13,87,67,41,29.47,29.40,5,0,7,0.00
2012-2-6,48,31,16,28,20,14,91,69,33,29.44,29.22,5,0,7,0.00
2012-2-7,44,33,25,29,24,20,89,70,50,29.55,29.24,4,0,6,0.00
2012-2-8,37,29,23,20,12,3,75,50,25,29.62,29.39,3,0,5,0.00
2012-2-9,42,30,20,22,19,15,93,67,34,29.43,29.34,8,0,8,0.00
2012-2-10,45,31,18,26,20,16,92,67,38,29.42,29.21,8,0,12,0.00
2012-2-11,36,32,23,29,24,15,92,74,63,29.21,28.87,8,0,8,0.02
2012-2-12,30,20,11,15,7,-4,72,58,44,29.21,28.97,6,1,10,0.00
2012-2-13,40,29,17,19,15,7,76,56,34,29.31,29.18,9,1,12,0.00
2012-2-14,42,33,25,26,18,14,84,55,33,29.40,29.30,5,0,6,0.00
2012-2-15,46,36,28,38,32,25,96,84,66,29.57,29.38,3,0,3,0.06
2012-2-16,37,31,23,35,28,21,96,91,72,29.60,29.33,3,0,3,0.10
2012-2-17,47,38,28,41,32,20,97,81,49,29.33,29.21,5,0,6,0.19
2012-2-18,44,34,24,31,25,20,92,70,41,29.36,29.18,6,0,10,0.00
2012-2-19,43,33,26,28,22,16,93,66,38,29.39,29.28,6,0,8,0.00
2012-2-20,39,29,21,20,17,11,79,61,37,29.64,29.30,6,0,6,0.00
2012-2-21,41,30,15,35,22,13,94,75,38,29.65,29.16,10,1,11,0.00
2012-2-22,53,40,30,38,31,25,96,72,37,29.16,28.82,7,1,8,0.00
2012-2-23,54,40,28,41,31,23,93,73,42,29.10,28.70,6,0,10,0.00
2012-2-24,34,32,28,33,30,24,97,93,80,29.09,28.65,9,1,11,0.44
2012-2-25,39,34,26,33,23,12,95,65,49,29.25,28.66,12,2,16,0.34
2012-2-26,38,29,22,20,15,11,81,56,33,29.74,29.25,9,1,9,0.02
2012-2-27,50,34,17,33,25,14,91,72,45,29.73,29.37,11,1,13,0.01
2012-2-28,45,37,29,32,22,16,77,55,35,29.70,29.41,7,1,10,0.00
2012-2-29,36,31,29,31,26,19,94,80,53,29.68,29.10,11,1,15,0.11
2012-3-1,34,32,27,32,30,24,95,92,86,29.30,28.98,10,2,15,0.34
2012-3-2,33,30,25,31,26,21,94,87,79,29.43,29.16,9,1,9,0.07
2012-3-3,50,40,33,45,32,19,97,78,34,29.16,28.73,8,1,11,0.42
2012-3-4,43,35,29,27,22,17,82,61,38,29.02,28.87,6,0,7,0.00
2012-3-5,38,29,20,22,12,3,75,50,25,29.66,29.01,7,1,12,0.00
2012-3-6,38,27,17,22,11,6,82,54,27,29.90,29.66,6,0,7,0.00
2012-3-7,59,40,24,34,28,21,92,67,31,29.86,29.61,7,1,9,0.00
2012-3-8,67,52,32,49,43,31,97,73,48,29.61,29.10,16,2,16,0.00
2012-3-9,59,38,29,48,26,14,92,63,31,29.52,29.08,7,1,10,0.07
2012-3-10,39,30,22,18,15,8,81,53,37,29.81,29.52,7,1,10,0.07
2012-3-11,57,38,21,29,22,17,88,58,26,29.80,29.60,5,1,9,0.00
2012-3-12,70,49,29,40,30,26,90,56,20,29.63,29.44,6,0,7,0.00
2012-3-13,70,56,46,55,47,38,94,74,55,29.44,29.21,7,1,10,0.00
2012-3-14,66,51,38,46,36,21,97,65,19,29.53,29.27,8,1,9,0.00
2012-3-15,55,43,35,42,37,31,92,79,56,29.65,29.52,9,1,11,0.00
2012-3-16,48,41,38,44,39,36,96,91,87,29.62,29.42,6,0,7,0.01
2012-3-17,64,47,36,48,41,35,98,80,47,29.67,29.49,6,0,8,0.00
2012-3-18,72,52,36,52,44,34,96,78,35,29.67,29.49,6,0,8,0.00
2012-3-19,78,57,38,55,46,37,97,73,31,29.56,29.45,6,0,9,0.00
2012-3-20,76,58,42,59,50,41,96,77,43,29.65,29.55,8,1,11,0.00
2012-3-21,70,59,48,60,54,47,98,86,64,29.69,29.58,5,0,9,0.00
2012-3-22,78,64,54,60,55,51,96,76,45,29.60,29.38,9,0,24,0.00
2012-3-23,74,60,50,56,47,32,97,69,25,29.46,29.34,8,1,8,0.00
2012-3-24,62,54,47,47,28,19,81,40,23,29.43,29.32,9,1,11,0.00
2012-3-25,51,45,38,43,36,19,91,71,33,29.33,29.04,6,0,6,0.05
2012-3-26,50,40,29,43,25,5,97,59,31,29.39,28.99,11,1,15,0.00
2012-3-27,46,33,23,15,6,-1,52,34,16,29.55,29.39,8,1,9,0.00
2012-3-28,58,42,29,46,32,13,96,69,46,29.46,28.86,6,0,10,0.20
2012-3-29,53,45,38,46,36,25,97,71,50,29.29,28.91,8,1,9,0.05
2012-3-30,51,41,29,30,21,8,73,46,21,29.38,29.27,8,1,10,0.00
2012-3-31,42,36,32,35,33,26,95,89,55,29.33,29.20,8,1,9,0.22
2012-4-1,49,40,34,41,37,33,97,88,64,29.22,28.95,4,0,5,0.23
2012-4-2,53,43,34,39,30,16,96,65,31,29.17,28.92,9,1,10,0.05
2012-4-3,59,43,25,29,19,11,84,45,16,29.22,29.06,6,1,11,0.00
2012-4-4,65,50,33,32,26,15,73,44,21,29.08,28.85,7,1,11,0.00
2012-4-5,52,41,30,30,26,22,86,58,36,29.25,29.04,7,1,10,0.00
2012-4-6,53,40,26,28,22,18,86,52,29,29.34,29.21,6,1,9,0.00
2012-4-7,57,43,26,27,22,15,79,46,22,29.36,29.25,8,1,8,0.00
2012-4-8,61,47,30,34,27,22,80,48,27,29.31,28.96,6,1,8,0.00
2012-4-9,59,49,42,36,28,21,62,44,27,29.00,28.90,10,1,12,0.00
2012-4-10,62,48,36,35,27,22,82,47,27,29.10,28.94,10,1,13,0.00
2012-4-11,55,43,33,34,31,27,88,64,35,29.21,29.08,5,0,6,0.00
2012-4-12,58,45,34,39,33,28,91,66,35,29.43,29.21,6,1,8,0.00
2012-4-13,64,46,29,36,30,23,95,59,24,29.50,29.39,6,0,8,0.00
2012-4-14,70,52,31,40,30,22,85,49,17,29.52,29.32,6,0,7,0.00
2012-4-15,77,63,53,58,51,40,86,67,46,29.36,29.25,6,1,7,0.00
2012-4-16,90,68,50,60,53,48,96,65,25,29.34,29.23,15,1,15,0.00
2012-4-17,76,63,52,53,43,31,93,53,25,29.51,29.23,7,1,7,0.00
2012-4-18,62,51,40,37,32,26,67,49,32,29.58,29.43,7,1,7,0.00
2012-4-19,74,56,39,45,38,28,88,56,20,29.44,29.29,6,0,7,0.00
2012-4-20,77,58,40,52,45,38,96,67,34,29.35,29.20,10,1,14,0.00
2012-4-21,77,63,52,59,54,46,93,74,44,29.20,29.00,9,1,10,0.02
2012-4-22,52,46,42,49,43,40,96,91,76,29.13,28.76,12,1,13,0.82
2012-4-23,53,47,42,51,44,38,97,91,82,28.76,28.54,12,2,16,1.20
2012-4-24,54,45,36,40,35,26,94,71,37,29.01,28.68,8,1,11,0.02
2012-4-25,60,44,32,40,34,29,95,71,34,29.24,29.01,10,0,11,0.00
2012-4-26,58,45,28,50,38,27,96,80,48,29.25,28.90,8,0,10,0.00
2012-4-27,58,47,35,51,34,24,97,64,35,29.41,28.88,8,1,12,0.01
2012-4-28,60,46,30,33,24,14,84,46,20,29.50,29.38,5,0,9,0.00
2012-4-29,63,46,28,30,22,14,77,43,18,29.56,29.36,7,1,7,0.00
2012-4-30,64,48,28,37,25,16,81,46,20,29.65,29.50,8,0,8,0.00
2012-5-1,58,50,45,54,46,36,96,87,68,29.52,29.30,5,0,8,0.34
2012-5-2,52,48,45,48,45,42,93,87,79,29.51,29.42,4,0,5,0.00
2012-5-3,54,52,50,52,50,49,97,94,91,29.47,29.40,4,0,4,0.06
2012-5-4,77,59,49,66,56,48,98,91,64,29.44,29.18,6,0,6,0.34
2012-5-5,66,58,55,61,56,54,98,93,78,29.39,29.23,4,0,4,0.03
2012-5-6,68,58,46,54,51,44,96,79,52,29.43,29.36,4,0,4,0.00
2012-5-7,72,56,44,55,48,43,97,75,45,29.45,29.39,6,0,7,0.02
2012-5-8,60,53,48,54,48,44,93,83,77,29.42,29.22,8,1,13,0.17
2012-5-29,78,68,66,71,66,64,97,92,76,29.14,29.05,3,0,5,0.23
2012-5-30,80,69,64,70,64,58,98,86,50,29.12,29.03,5,0,5,0.25
2012-5-31,81,65,53,61,56,49,98,74,39,29.28,29.07,3,0,5,0.00
2012-6-1,74,60,48,60,52,47,96,77,54,29.37,29.21,8,1,8,0.01
2012-6-2,74,60,55,68,58,52,98,92,72,29.21,29.00,7,0,10,1.23
2012-6-3,78,60,48,60,54,47,99,84,45,29.08,28.96,4,0,5,0.30
2012-6-4,60,53,48,53,50,46,98,89,69,29.15,28.95,5,0,6,0.37
2012-6-5,65,54,46,60,50,44,97,87,69,29.28,29.13,2,0,3,0.04
2012-6-6,74,58,45,60,52,44,98,81,50,29.32,29.26,3,0,5,0.00
2012-6-7,80,62,46,61,52,45,98,76,37,29.31,29.22,4,0,4,0.00
2012-6-8,84,62,46,67,56,46,98,84,37,29.28,29.15,5,0,28,0.05
2012-6-9,73,61,54,65,58,53,98,92,72,29.31,29.17,2,0,2,0.00
2012-6-10,86,67,54,71,62,54,99,84,47,29.53,29.31,4,0,4,0.03
2012-6-11,76,65,56,60,57,53,97,78,46,29.60,29.52,5,0,7,0.00
2012-6-12,68,63,59,64,61,57,97,92,84,29.53,29.25,4,0,5,0.15
2012-6-13,77,65,60,69,63,59,98,93,70,29.41,29.22,3,0,4,0.80
2012-6-14,81,65,53,65,58,52,99,81,49,29.58,29.41,7,0,8,0.00
2012-6-15,82,65,54,61,55,48,98,73,37,29.64,29.58,4,0,15,0.00
2012-6-16,84,64,48,61,54,47,99,75,37,29.67,29.55,4,0,5,0.00
2012-6-17,77,63,51,63,56,49,94,80,55,29.58,29.42,3,0,5,0.00
2012-6-18,79,62,48,62,54,47,98,78,50,29.48,29.41,3,0,5,0.00
2012-6-19,75,63,52,68,60,50,97,89,74,29.50,29.39,3,0,4,0.00
2012-6-20,97,76,60,82,71,59,99,85,55,29.42,29.26,2,0,3,0.00
2012-6-21,98,79,67,79,72,66,99,81,44,29.28,29.11,2,0,3,0.00
2012-6-22,93,74,65,78,70,65,99,88,54,29.17,29.08,4,0,4,0.67
2012-6-23,88,70,57,71,63,54,99,81,45,29.32,29.15,3,0,3,0.03
2012-6-24,88,67,53,66,59,52,99,77,33,29.35,29.23,1,0,3,0.00
2012-6-25,76,62,54,68,61,53,98,94,65,29.23,29.01,3,0,5,0.79
2012-6-26,70,58,49,61,54,48,99,87,70,29.07,29.00,4,0,8,0.01
2012-6-27,85,64,50,62,53,44,98,71,33,29.15,29.00,3,0,4,0.00
2012-6-28,90,68,50,68,59,50,98,76,37,29.15,29.04,3,0,3,0.00
2012-6-29,95,75,61,79,69,60,98,83,52,29.07,28.95,2,0,2,0.01
2012-6-30,94,73,58,72,64,57,98,78,38,29.12,29.03,3,0,3,0.00
2012-7-1,93,72,61,76,67,60,99,84,48,29.21,29.10,5,0,9,0.01
2012-7-2,90,70,57,69,62,56,98,78,43,29.26,29.19,4,0,4,0.00
2012-7-3,91,71,55,69,62,54,98,76,37,29.29,29.17,3,0,3,0.00
2012-7-4,92,75,66,79,70,64,98,86,51,29.18,29.05,2,0,3,0.09
2012-7-5,92,74,62,72,67,60,99,80,43,29.22,29.05,3,0,4,0.00
2012-7-6,93,73,57,72,64,56,99,79,41,29.28,29.18,3,0,3,0.00
2012-7-7,91,73,62,78,69,62,98,88,57,29.21,29.11,2,0,2,0.03
2012-7-8,93,74,61,73,66,60,99,80,40,29.23,29.14,2,0,3,0.01
2012-7-9,89,69,55,65,59,54,98,73,36,29.33,29.22,4,0,4,0.00
2012-7-10,90,69,52,64,57,51,96,71,30,29.43,29.32,2,0,3,0.03
2012-7-11,92,71,57,70,63,56,99,79,43,29.53,29.42,4,0,6,0.03
2012-7-12,94,73,59,72,64,58,98,75,40,29.54,29.44,3,0,4,0.00
2012-7-13,92,73,59,75,66,58,98,81,50,29.54,29.47,2,0,3,0.00
2012-7-14,94,76,67,74,68,63,98,78,39,29.53,29.44,4,0,4,0.02
2012-7-15,88,71,62,76,68,61,99,91,62,29.48,29.25,2,0,2,0.25
2012-7-16,92,76,67,78,71,67,99,87,54,29.25,29.12,3,0,3,0.18
2012-7-17,96,78,65,76,70,64,99,80,45,29.18,29.05,4,0,5,0.00
2012-7-18,98,77,69,80,72,68,98,88,49,29.23,29.10,4,0,4,0.22
2012-7-19,84,70,63,72,65,59,99,85,52,29.34,29.22,3,0,5,0.01
2012-7-20,65,62,60,63,61,58,99,95,89,29.41,29.30,3,0,5,0.23
2012-7-21,85,66,54,64,58,54,100,78,38,29.47,29.38,4,0,4,0.00
2012-7-22,87,68,52,68,60,52,99,79,48,29.49,29.42,3,0,5,0.00
2012-7-23,85,71,61,76,68,60,99,91,73,29.46,29.12,3,0,5,0.28
2012-7-24,90,72,62,77,68,58,100,89,58,29.13,28.94,4,0,6,0.22
2012-7-25,87,69,56,65,58,52,93,73,36,29.23,29.10,3,0,4,0.00
2012-7-26,87,70,62,77,67,59,98,89,66,29.14,28.96,6,0,6,0.63
2012-7-27,85,74,67,78,71,66,100,92,72,29.23,29.00,2,0,2,0.07
2012-7-28,79,70,65,73,68,64,99,94,78,29.32,29.23,6,0,6,1.15
2012-7-29,78,68,62,70,66,61,100,93,71,29.40,29.26,2,0,3,0.00
2012-7-30,84,68,60,72,64,60,100,89,59,29.47,29.40,3,0,4,0.00
2012-7-31,74,67,60,67,63,60,99,90,74,29.44,29.26,5,0,6,0.00
2012-8-1,85,69,60,75,66,59,99,93,62,29.28,29.18,3,0,4,0.75
2012-8-2,90,74,65,77,69,65,100,87,53,29.26,29.18,3,0,3,0.00
2012-8-3,92,76,64,78,71,63,100,87,57,29.44,29.26,3,0,3,0.00
2012-8-4,92,77,66,79,72,66,100,86,56,29.55,29.44,4,0,5,0.00
2012-8-5,89,77,70,81,74,69,99,92,69,29.54,29.27,4,0,7,0.35
2012-8-6,85,72,59,71,67,58,100,86,54,29.36,29.29,3,0,3,0.13
2012-8-7,86,68,54,69,61,54,100,83,46,29.36,29.29,3,0,4,0.00
2012-8-8,88,71,58,73,65,57,100,85,47,29.34,29.27,3,0,3,0.00
2012-8-9,90,75,66,77,70,64,99,85,56,29.31,29.20,3,0,4,0.00
2012-8-10,78,72,66,75,70,64,99,96,87,29.25,29.10,7,0,7,1.48
2012-8-11,82,74,68,78,72,68,100,94,78,29.25,29.15,6,0,6,0.18
2012-8-12,88,75,63,74,69,62,99,85,54,29.28,29.21,3,0,4,0.00
2012-8-13,87,69,58,72,64,58,100,86,52,29.33,29.26,3,0,3,0.00
2012-8-14,79,67,58,72,65,57,100,93,66,29.32,29.23,2,0,3,0.03
2012-8-15,82,69,62,74,67,62,100,93,69,29.26,29.16,2,0,4,1.66
2012-8-16,85,70,61,72,66,60,100,89,55,29.24,29.18,2,0,3,0.00
2012-8-17,87,69,56,75,66,56,100,89,56,29.23,29.11,3,0,4,0.10
2012-8-18,80,66,54,69,62,53,100,88,53,29.27,29.18,2,0,3,0.44
2012-8-19,75,61,49,64,57,49,100,88,63,29.33,29.25,1,0,2,0.00
2012-8-20,81,64,51,69,60,51,100,87,55,29.28,29.18,2,0,2,0.00
2012-8-21,82,67,58,66,61,57,100,84,47,29.44,29.26,3,0,3,0.00
2012-8-22,84,67,55,69,61,55,100,84,46,29.49,29.43,2,0,3,0.00
2012-8-23,87,68,55,71,62,55,100,84,47,29.49,29.43,2,0,3,0.00
2012-8-24,86,68,57,73,64,57,100,87,49,29.54,29.46,2,0,2,0.00
2012-8-25,84,68,59,71,62,58,100,84,52,29.63,29.53,4,0,6,0.00
2012-8-26,84,66,56,67,59,53,100,79,37,29.67,29.57,3,0,5,0.00
2012-8-27,81,68,55,73,65,55,100,90,70,29.57,29.28,5,0,6,0.00
2012-8-28,84,72,60,74,68,58,100,87,61,29.28,29.12,3,0,4,0.17
2012-8-29,76,61,50,58,54,49,100,81,46,29.36,29.24,2,0,4,0.00
2012-8-30,79,60,45,64,54,45,100,83,49,29.43,29.35,4,-7,5,0.00
2012-8-31,87,67,52,71,60,52,100,82,45,29.38,29.21,4,0,4,0.00
2012-9-1,87,72,62,75,65,60,98,81,47,29.42,29.23,4,0,5,0.00
2012-9-2,82,68,60,70,63,58,97,84,57,29.46,29.36,3,0,3,0.00
2012-9-3,76,65,55,64,60,55,100,85,57,29.53,29.44,7,0,8,0.00
2012-9-4,76,70,65,73,68,62,99,94,87,29.47,29.17,4,0,5,0.09
2012-9-5,78,72,64,74,71,64,100,95,76,29.18,29.10,4,0,4,1.06
2012-9-6,78,67,59,72,65,58,100,94,78,29.27,29.17,2,0,2,0.00
2012-9-7,86,72,63,75,69,63,100,91,61,29.27,29.18,3,0,3,0.00
2012-9-8,76,69,62,74,68,61,100,97,86,29.22,28.92,6,0,8,1.41
2012-9-9,75,62,56,66,59,55,100,91,63,29.22,29.10,3,0,3,0.13
2012-9-10,68,56,47,58,51,44,100,85,59,29.45,29.21,4,0,5,0.13
2012-9-11,71,53,40,56,48,39,100,85,50,29.61,29.45,3,0,3,0.00
2012-9-12,77,57,43,64,52,43,100,87,47,29.69,29.61,2,0,2,0.00
2012-9-13,78,60,48,67,56,47,100,89,58,29.70,29.60,3,0,3,0.00
2012-9-14,79,62,51,68,58,51,100,89,62,29.62,29.42,3,0,4,0.00
2012-9-15,70,58,47,59,54,46,99,87,61,29.44,29.38,5,0,6,0.05
2012-9-16,70,54,43,57,49,43,100,87,58,29.45,29.35,3,0,3,0.00
2012-9-17,74,56,42,62,52,42,100,88,61,29.44,29.35,3,0,5,0.00
2012-9-18,70,63,50,70,63,50,100,99,96,29.38,28.98,8,1,9,0.99
2012-9-19,66,57,44,66,54,44,100,88,63,29.52,29.06,4,0,5,0.59
2012-9-20,66,52,41,57,49,41,100,88,62,29.56,29.45,7,0,8,0.00
2012-9-21,71,56,46,58,51,46,100,87,57,29.47,29.35,6,0,6,0.00
2012-9-22,68,60,48,66,57,48,100,93,78,29.36,29.13,7,0,7,0.63
2012-9-23,66,54,43,58,51,42,100,89,58,29.44,29.16,4,0,5,0.63
2012-9-24,64,49,40,53,44,39,100,87,55,29.48,29.41,3,0,3,0.01
2012-9-25,69,51,36,55,46,36,100,84,48,29.50,29.44,6,0,8,0.00
2012-9-26,66,59,52,63,58,51,100,97,87,29.46,29.35,3,0,3,0.07
2012-9-27,71,60,52,64,57,49,100,90,64,29.54,29.36,2,0,4,0.01
2012-9-28,57,54,52,56,54,49,99,97,80,29.52,29.29,5,0,6,0.57
2012-9-29,60,56,53,57,54,52,100,96,86,29.29,29.20,1,0,2,0.04
2012-9-30,63,55,46,60,53,46,100,93,69,29.22,29.06,7,0,7,0.05
2012-10-1,65,52,43,56,49,43,100,92,72,29.30,29.09,7,0,8,0.01
2012-10-2,61,55,49,59,55,49,100,99,94,29.38,29.29,3,0,3,1.77
2012-10-3,71,64,58,70,64,58,100,99,94,29.45,29.33,3,0,3,0.03
2012-10-4,70,65,61,69,65,61,100,99,96,29.47,29.37,3,0,4,1.63
2012-10-5,73,62,55,68,60,54,100,92,62,29.39,29.26,3,0,3,0.01
2012-10-6,75,57,44,67,54,43,100,91,69,29.30,29.08,7,0,8,0.00
2012-10-7,53,46,37,48,43,36,100,92,75,29.42,29.29,2,0,2,0.14
2012-10-8,55,45,35,50,42,35,100,92,68,29.60,29.40,2,0,4,0.14
2012-10-9,56,50,42,51,47,42,99,91,79,29.57,29.43,7,0,8,0.00
2012-10-10,60,52,45,59,51,42,99,96,88,29.43,29.10,5,0,5,0.20
2012-10-11,58,45,36,44,39,36,97,80,49,29.48,29.23,4,0,5,0.00
2012-10-12,52,40,31,45,35,26,100,85,58,29.72,29.36,5,0,5,0.02
2012-10-13,52,39,24,38,30,23,98,72,40,29.81,29.60,4,-11,4,0.00
2012-10-14,64,52,41,55,48,37,99,88,70,29.61,29.28,5,0,6,0.03
2012-10-15,68,58,49,63,57,48,100,95,80,29.28,28.97,4,0,6,0.02
2012-10-16,55,47,35,55,43,33,99,86,63,29.23,28.97,5,0,8,0.00
2012-10-17,59,44,31,47,38,30,100,84,50,29.33,29.23,3,0,6,0.00
2012-10-18,64,48,33,54,44,32,100,87,59,29.39,29.31,8,1,8,0.00
2012-10-19,64,61,55,64,60,53,100,98,92,29.33,29.03,8,1,12,1.70
2012-10-20,70,60,45,66,55,42,100,85,52,29.13,28.96,4,0,7,0.00
2012-10-21,62,50,40,48,42,39,99,77,53,29.30,29.13,4,0,5,0.00
2012-10-22,64,49,38,49,42,37,99,82,50,29.39,29.29,4,0,6,0.00
2012-10-23,62,50,40,53,47,40,98,93,62,29.45,29.37,1,0,1,0.23
2012-10-24,54,51,50,51,49,44,99,92,74,29.53,29.43,5,0,5,0.06
2012-10-25,59,53,50,51,49,47,96,86,65,29.61,29.52,5,0,6,0.00
2012-10-26,61,56,52,57,54,51,97,93,85,29.57,29.45,2,0,2,0.00
2012-10-27,62,57,53,56,54,52,98,91,77,29.45,29.28,3,0,4,0.00
2012-10-28,55,53,50,52,48,40,97,82,61,29.29,29.03,13,1,13,0.00
2012-10-29,63,55,50,60,52,46,98,92,79,29.04,28.18,23,4,34,0.54
2012-10-30,58,54,48,54,50,47,96,87,72,28.83,28.43,18,2,20,0.32
2012-10-31,50,46,42,48,42,38,98,88,74,28.89,28.79,4,0,6,0.07
2012-11-1,54,44,40,43,40,37,94,84,63,28.91,28.85,6,0,7,0.00
2012-11-2,53,44,40,42,38,33,95,81,55,29.02,28.89,4,0,6,0.00
2012-11-3,51,41,36,37,33,31,89,75,53,29.21,29.02,7,1,8,0.00
2012-11-4,50,39,33,36,31,29,85,75,56,29.29,29.20,6,0,7,0.00
2012-11-5,40,34,23,30,25,20,88,72,59,29.47,29.28,5,0,7,0.00
2012-11-6,42,28,17,25,20,16,95,75,42,29.54,29.42,4,0,5,0.00
2012-11-7,36,31,26,30,27,20,97,84,70,29.42,29.08,11,1,14,0.00
2012-11-8,39,35,29,32,29,27,97,81,69,29.19,29.03,7,0,8,0.29
2012-11-9,50,39,30,36,28,22,86,66,39,29.48,29.18,6,0,7,0.04
2012-11-10,54,44,33,43,38,31,95,82,61,29.73,29.47,5,0,5,0.00
2012-11-11,63,48,37,50,43,35,98,85,58,29.80,29.72,8,0,8,0.00
2012-11-12,63,51,35,58,49,34,99,93,78,29.78,29.51,9,1,10,0.00
2012-11-13,60,44,30,58,41,27,96,90,80,29.75,29.42,10,0,12,0.16
2012-11-14,45,33,25,32,27,24,97,81,54,29.83,29.74,7,0,9,0.00
2012-11-15,44,32,24,30,26,22,95,80,53,29.77,29.60,6,0,6,0.00
2012-11-16,46,33,26,33,27,24,95,79,52,29.74,29.60,4,0,4,0.00
2012-11-17,50,34,25,36,28,23,94,80,52,29.94,29.73,4,0,4,0.00
2012-11-18,47,32,23,35,27,22,97,84,55,29.99,29.90,8,0,9,0.00
2012-11-19,47,32,23,38,29,22,98,88,65,29.90,29.57,5,0,6,0.01
2012-11-20,49,33,23,38,28,22,98,83,42,29.57,29.42,3,0,3,0.00
2012-11-21,51,36,28,35,28,25,93,75,37,29.56,29.47,6,0,6,0.00
2012-11-22,55,36,26,44,32,24,98,86,59,29.58,29.44,4,0,4,0.00
2012-11-23,55,40,26,45,36,25,98,87,58,29.45,28.97,6,0,8,0.03
2012-11-24,45,37,28,42,27,19,98,69,42,29.08,28.95,7,1,10,0.03
2012-11-25,38,32,28,25,22,18,83,68,51,29.22,29.07,8,0,10,0.00
2012-11-26,46,33,23,29,24,20,88,70,48,29.56,29.21,9,0,9,0.00
2012-11-27,33,30,24,32,28,21,97,93,86,29.61,29.51,3,0,3,0.00
2012-11-28,38,31,22,33,27,20,98,87,66,29.53,29.45,4,0,7,0.07
2012-11-29,40,28,20,31,24,19,97,84,59,29.61,29.51,7,0,7,0.01
2012-11-30,40,31,25,32,25,17,93,81,59,29.79,29.58,5,0,6,0.01
2012-12-1,33,30,27,32,26,17,97,86,59,29.86,29.74,6,1,8,0.00
2012-12-2,48,40,33,45,39,32,98,96,87,29.74,29.40,4,0,5,0.12
2012-12-3,54,42,30,51,40,30,100,93,73,29.60,29.39,4,0,4,0.12
2012-12-4,52,42,30,52,42,29,100,99,97,29.61,29.29,4,0,7,0.08
2012-12-5,52,44,29,50,38,19,100,83,59,29.52,29.21,5,0,9,0.04
2012-12-6,37,27,20,22,19,16,91,73,52,29.64,29.52,5,0,6,0.00
2012-12-7,38,30,18,36,28,17,98,93,80,29.57,29.34,1,0,2,0.11
2012-12-8,46,42,36,46,41,35,99,99,98,29.34,29.17,2,0,2,0.25
2012-12-9,44,39,35,44,37,33,99,93,73,29.58,29.30,7,0,7,0.07
2012-12-10,54,46,38,54,45,37,100,99,96,29.37,28.87,5,0,7,0.18
2012-12-11,45,38,27,43,34,25,97,85,68,29.49,28.93,5,0,8,0.04
2012-12-12,38,29,24,30,26,23,97,88,66,29.74,29.48,4,0,4,0.00
2012-12-13,42,29,21,35,25,20,97,86,56,29.78,29.61,3,0,4,0.00
2012-12-14,44,28,18,33,24,17,98,84,51,29.61,29.42,5,0,6,0.01
2012-12-15,43,30,22,33,26,21,98,86,58,29.61,29.51,4,0,4,0.00
2012-12-16,34,33,31,32,30,28,96,90,82,29.55,29.28,12,2,12,0.02
2012-12-17,39,36,34,38,35,32,98,96,95,29.28,29.00,10,2,13,0.30
2012-12-18,45,42,38,45,41,37,99,98,96,29.01,28.77,10,1,13,0.93
2012-12-19,46,38,33,37,32,26,98,79,60,29.40,28.86,9,1,13,0.05
2012-12-20,42,34,24,36,29,23,96,82,63,29.51,29.20,7,0,8,0.08
2012-12-21,54,41,34,53,39,29,98,90,80,29.20,28.37,35,3,35,1.66
2012-12-22,35,32,30,31,26,21,96,79,64,29.05,28.59,10,1,12,0.02
2012-12-23,40,32,24,28,24,21,90,75,59,29.22,29.04,9,0,9,0.00
2012-12-24,36,27,19,27,22,18,95,82,57,29.38,29.22,4,0,5,0.00
2012-12-25,38,30,23,34,27,21,96,89,74,29.55,29.24,4,0,7,0.04
2012-12-26,32,26,17,31,22,16,98,85,64,29.58,28.92,17,2,22,0.00
2012-12-27,36,32,26,35,30,21,98,93,83,29.07,28.63,18,2,19,0.41
2012-12-28,33,27,20,26,22,19,95,82,71,29.35,29.07,7,1,10,0.00
2012-12-29,30,25,18,27,24,17,97,94,84,29.34,28.80,5,0,7,0.00
2012-12-30,32,25,20,26,18,12,95,76,58,29.37,28.84,9,1,12,0.00
2012-12-31,34,26,16,25,19,12,89,75,63,29.41,29.13,6,0,8,0.02
2013-1-1,37,29,14,27,21,8,79,71,62,29.28,29.11,7,0,9,0.01